Time;durP1;ratioP1;P1;durP2;ratioP2;P2;SDS_P1;SDS_P2;PMS_P1;PMS_P2;Temp;Humidity;BMP_temperature;BMP_pressure;BME280_temperature;BME280_humidity;BME280_pressure;Samples;Min_cycle;Max_cycle;Signal;HPM_P1;HPM_P2
2022/12/14 00:00:41;;;;;;;36.72;21.02;;;-2.70;99.90;;;;;;4997521;28;20137;-82
2022/12/14 00:03:07;;;;;;;37.58;21.85;;;-2.70;99.90;;;;;;5014787;28;20034;-82
2022/12/14 00:05:33;;;;;;;37.65;22.08;;;-2.70;99.90;;;;;;5014874;28;20469;-82
2022/12/14 00:07:59;;;;;;;34.38;20.55;;;-2.70;99.90;;;;;;5014886;28;20041;-82
2022/12/14 00:10:24;;;;;;;34.60;20.45;;;-2.70;99.90;;;;;;5013669;28;20049;-82
2022/12/14 00:12:50;;;;;;;34.92;21.60;;;-2.70;99.90;;;;;;5014473;28;20042;-82
2022/12/14 00:15:15;;;;;;;34.28;21.42;;;-2.80;99.90;;;;;;5014157;28;20049;-82
2022/12/14 00:17:41;;;;;;;39.97;22.95;;;-2.80;99.90;;;;;;5014451;28;20081;-82
2022/12/14 00:20:07;;;;;;;36.13;21.85;;;-2.80;99.90;;;;;;5014029;28;20041;-82
2022/12/14 00:22:33;;;;;;;33.58;20.35;;;-2.80;99.90;;;;;;5015440;28;20034;-82
2022/12/14 00:24:59;;;;;;;36.47;21.27;;;-2.80;99.90;;;;;;4996420;28;20038;-82
2022/12/14 00:27:25;;;;;;;37.38;20.70;;;-2.80;99.90;;;;;;5014078;28;20049;-82
2022/12/14 00:29:51;;;;;;;36.17;21.42;;;-2.80;99.90;;;;;;5013548;28;20072;-81
2022/12/14 00:32:17;;;;;;;37.55;21.60;;;-2.80;99.90;;;;;;5013570;28;20073;-82
2022/12/14 00:34:42;;;;;;;33.58;20.40;;;-2.80;99.90;;;;;;5014759;28;20042;-82
2022/12/14 00:37:08;;;;;;;36.40;21.08;;;-2.80;99.90;;;;;;5014212;28;20045;-82
2022/12/14 00:39:33;;;;;;;36.78;21.10;;;-2.80;99.90;;;;;;4995601;28;20085;-82
2022/12/14 00:41:59;;;;;;;35.00;21.15;;;-2.80;99.90;;;;;;5013955;28;20113;-82
2022/12/14 00:44:25;;;;;;;39.55;21.52;;;-2.80;99.90;;;;;;4995649;28;20050;-82
2022/12/14 00:46:50;;;;;;;36.70;22.23;;;-2.80;99.90;;;;;;4995465;28;20115;-82
2022/12/14 00:49:16;;;;;;;35.50;20.85;;;-2.80;99.90;;;;;;4995899;28;20046;-82
2022/12/14 00:51:41;;;;;;;32.47;20.35;;;-2.80;99.90;;;;;;5012968;28;20057;-82
2022/12/14 00:54:07;;;;;;;34.38;20.50;;;-2.80;99.90;;;;;;5013915;28;20057;-82
2022/12/14 00:56:32;;;;;;;36.33;21.55;;;-2.80;99.90;;;;;;4995227;28;20049;-82
2022/12/14 00:58:58;;;;;;;36.28;22.08;;;-2.80;99.90;;;;;;5012360;28;20042;-82
2022/12/14 01:01:24;;;;;;;37.92;22.15;;;-2.80;99.90;;;;;;4995800;28;20041;-82
2022/12/14 01:03:49;;;;;;;34.35;20.73;;;-2.80;99.90;;;;;;5013409;28;20508;-82
2022/12/14 01:06:21;;;;;;;36.40;21.58;;;-2.80;99.90;;;;;;5011633;28;20056;-82
2022/12/14 01:08:47;;;;;;;36.08;21.30;;;-2.80;99.90;;;;;;5013066;28;20397;-82
2022/12/14 01:11:14;;;;;;;35.60;20.95;;;-2.80;99.90;;;;;;4995574;28;20071;-82
2022/12/14 01:13:40;;;;;;;33.97;20.75;;;-2.80;99.90;;;;;;4995012;28;20199;-82
2022/12/14 01:16:09;;;;;;;34.13;20.23;;;-2.80;99.90;;;;;;5012873;28;20037;-82
2022/12/14 01:18:39;;;;;;;33.90;20.13;;;-2.80;99.90;;;;;;5013246;28;20501;-82
2022/12/14 01:21:12;;;;;;;37.97;21.05;;;-2.80;99.90;;;;;;4995064;28;20046;-82
2022/12/14 01:23:39;;;;;;;35.65;20.88;;;-2.80;99.90;;;;;;5013476;28;20050;-82
2022/12/14 01:26:04;;;;;;;34.05;19.98;;;-2.90;99.90;;;;;;5013365;28;20037;-82
2022/12/14 01:28:30;;;;;;;37.72;21.00;;;-2.90;99.90;;;;;;5012180;28;20504;-82
2022/12/14 01:30:55;;;;;;;33.33;20.42;;;-2.90;99.90;;;;;;5012740;28;20037;-82
2022/12/14 01:33:21;;;;;;;35.63;20.80;;;-2.90;99.90;;;;;;5012398;28;20056;-82
2022/12/14 01:35:46;;;;;;;34.25;19.05;;;-2.90;99.90;;;;;;4994733;28;20042;-82
2022/12/14 01:38:12;;;;;;;34.95;20.48;;;-2.90;99.90;;;;;;5012864;28;20081;-82
2022/12/14 01:40:38;;;;;;;36.03;20.85;;;-3.00;99.90;;;;;;5012323;28;20089;-82
2022/12/14 01:43:11;;;;;;;35.55;20.05;;;-2.90;99.90;;;;;;5012694;28;20041;-82
2022/12/14 01:45:37;;;;;;;35.17;19.77;;;-3.00;99.90;;;;;;5012549;28;20404;-82
2022/12/14 01:48:04;;;;;;;35.20;21.05;;;-3.00;99.90;;;;;;5012147;28;20136;-82
2022/12/14 01:50:42;;;;;;;32.40;19.38;;;-3.00;99.90;;;;;;5012521;28;20053;-82
2022/12/14 01:53:20;;;;;;;35.05;20.35;;;-3.00;99.90;;;;;;4994563;28;20054;-82
2022/12/14 01:55:52;;;;;;;35.20;20.65;;;-3.10;99.90;;;;;;4994581;28;20041;-82
2022/12/14 01:58:20;;;;;;;30.90;19.17;;;-3.10;99.90;;;;;;5012596;28;20113;-82
2022/12/14 02:00:46;;;;;;;37.15;20.55;;;-3.10;99.90;;;;;;5012308;28;20046;-82
2022/12/14 02:03:18;;;;;;;34.10;19.45;;;-3.10;99.90;;;;;;4993839;28;20500;-82
2022/12/14 02:06:03;;;;;;;32.55;19.90;;;-3.10;99.90;;;;;;4995116;28;20058;-82
2022/12/14 02:08:29;;;;;;;32.92;18.73;;;-3.10;99.90;;;;;;5012617;28;20112;-82
2022/12/14 02:10:56;;;;;;;33.75;19.90;;;-3.10;99.90;;;;;;4994658;28;20081;-82
2022/12/14 02:13:26;;;;;;;33.75;20.00;;;-3.20;99.90;;;;;;4994319;28;20037;-82
2022/12/14 02:15:52;;;;;;;35.35;20.40;;;-3.20;99.90;;;;;;5012960;28;20034;-82
2022/12/14 02:18:22;;;;;;;33.80;19.15;;;-3.20;99.90;;;;;;5015685;28;20034;-82
2022/12/14 02:21:00;;;;;;;32.00;19.20;;;-3.20;99.90;;;;;;4999151;28;20531;-82
2022/12/14 02:23:28;;;;;;;35.30;19.85;;;-3.20;99.90;;;;;;5015175;28;20046;-82
2022/12/14 02:26:28;;;;;;;34.35;19.30;;;-3.30;99.90;;;;;;5016428;28;20115;-82
2022/12/14 02:29:26;;;;;;;36.47;19.77;;;-3.30;99.90;;;;;;4987358;28;20053;-82
2022/12/14 02:32:00;;;;;;;32.80;18.90;;;-3.30;99.90;;;;;;4997765;28;20053;-82
2022/12/14 02:34:50;;;;;;;33.28;19.00;;;-3.30;99.90;;;;;;4982154;28;20383;-81
2022/12/14 02:37:26;;;;;;;36.33;20.60;;;-3.40;99.90;;;;;;4997818;28;20478;-82
2022/12/14 02:40:19;;;;;;;32.58;18.85;;;-3.40;99.90;;;;;;5016461;28;20054;-82
2022/12/14 02:42:57;;;;;;;31.42;18.50;;;-3.40;99.90;;;;;;4998116;28;20064;-82
2022/12/14 02:45:34;;;;;;;34.53;19.02;;;-3.40;99.90;;;;;;5015794;28;20045;-82
2022/12/14 02:48:08;;;;;;;34.15;18.50;;;-3.40;99.90;;;;;;5015947;28;20486;-82
2022/12/14 02:50:46;;;;;;;35.65;20.10;;;-3.40;99.90;;;;;;4998209;28;20096;-82
2022/12/14 02:53:41;;;;;;;37.95;20.05;;;-3.50;99.90;;;;;;5014956;28;20125;-82
2022/12/14 02:56:11;;;;;;;37.00;19.27;;;-3.50;99.90;;;;;;5015834;28;20065;-82
2022/12/14 02:58:46;;;;;;;36.03;19.45;;;-3.50;99.90;;;;;;4996800;28;20515;-82
2022/12/14 03:01:15;;;;;;;32.90;18.98;;;-3.50;99.90;;;;;;4998338;28;20045;-82
2022/12/14 03:03:41;;;;;;;34.20;19.58;;;-3.50;99.90;;;;;;5014643;28;20049;-82
2022/12/14 03:06:24;;;;;;;33.78;18.88;;;-3.50;99.90;;;;;;5014699;28;20038;-82
2022/12/14 03:08:53;;;;;;;32.63;18.83;;;-3.50;99.90;;;;;;4997737;28;20096;-81
2022/12/14 03:11:33;;;;;;;34.10;19.58;;;-3.50;99.90;;;;;;5015091;28;20042;-82
2022/12/14 03:14:28;;;;;;;31.45;18.25;;;-3.50;99.90;;;;;;5014781;28;20034;-82
2022/12/14 03:16:59;;;;;;;33.88;18.58;;;-3.60;99.90;;;;;;5011284;28;20132;-82
2022/12/14 03:19:34;;;;;;;32.33;17.85;;;-3.60;99.90;;;;;;4996593;28;20129;-82
2022/12/14 03:22:07;;;;;;;32.47;18.42;;;-3.60;99.90;;;;;;4982661;28;20089;-82
2022/12/14 03:24:53;;;;;;;;;;;-3.60;99.90;;;;;;4998250;28;20042;-82
2022/12/14 03:27:28;;;;;;;30.38;17.02;;;-3.60;99.90;;;;;;4996853;28;19928;-82
2022/12/14 03:30:03;;;;;;;30.05;17.75;;;-3.70;99.90;;;;;;5014150;28;20045;-81
2022/12/14 03:32:31;;;;;;;31.30;17.50;;;-3.70;99.90;;;;;;4994728;28;20440;-82
2022/12/14 03:35:03;;;;;;;31.15;17.60;;;-3.70;99.90;;;;;;5014213;28;20042;-82
2022/12/14 03:37:48;;;;;;;32.90;17.95;;;-3.70;99.90;;;;;;5014870;28;20046;-82
2022/12/14 03:40:14;;;;;;;32.20;17.15;;;-3.70;99.90;;;;;;5014630;28;20085;-82
2022/12/14 03:42:52;;;;;;;32.35;18.58;;;-3.70;99.90;;;;;;5014137;28;20049;-82
2022/12/14 03:45:22;;;;;;;30.17;17.00;;;-3.70;99.90;;;;;;5014219;28;20485;-82
2022/12/14 03:48:16;;;;;;;29.58;18.17;;;-3.80;99.90;;;;;;5014230;28;20144;-82
2022/12/14 03:50:51;;;;;;;31.67;17.25;;;-3.80;99.90;;;;;;4996886;28;20054;-82
2022/12/14 03:53:32;;;;;;;30.55;17.40;;;-3.80;99.90;;;;;;4992225;28;20041;-82
2022/12/14 03:56:22;;;;;;;29.25;17.25;;;-3.80;99.90;;;;;;5010944;28;20121;-82
2022/12/14 03:59:05;;;;;;;32.60;17.80;;;-3.80;99.90;;;;;;4996354;28;20129;-82
2022/12/14 04:01:31;;;;;;;;;;;-3.90;99.90;;;;;;5012784;28;20113;-82
2022/12/14 04:04:07;;;;;;;28.75;16.00;;;-3.90;99.90;;;;;;5009618;28;19936;-82
2022/12/14 04:06:54;;;;;;;29.08;16.10;;;-3.90;99.90;;;;;;4996054;28;20486;-82
2022/12/14 04:09:55;;;;;;;32.25;17.88;;;-3.90;99.90;;;;;;4995889;28;20049;-82
2022/12/14 04:21:24;;;;;;;31.00;16.30;;;-4.10;99.90;;;;;;4977170;28;20567;-82
2022/12/14 04:26:51;;;;;;;28.10;16.52;;;-4.10;99.90;;;;;;4977163;28;20434;-81
2022/12/14 04:32:17;;;;;;;32.15;17.42;;;-4.10;99.90;;;;;;5008047;28;20513;-82
2022/12/14 04:34:46;;;;;;;28.40;15.85;;;-4.10;99.90;;;;;;4996327;28;20037;-82
2022/12/14 04:37:17;;;;;;;24.55;14.90;;;-4.10;99.90;;;;;;5010743;28;20088;-81
2022/12/14 04:40:04;;;;;;;29.27;16.35;;;-4.10;99.90;;;;;;4995709;28;20061;-83
2022/12/14 04:42:35;;;;;;;30.50;15.82;;;-4.20;99.90;;;;;;4995347;28;20099;-82
2022/12/14 04:45:10;;;;;;;32.60;17.75;;;-4.20;99.90;;;;;;4976333;28;20050;-82
2022/12/14 04:47:41;;;;;;;29.98;16.85;;;-4.20;99.90;;;;;;5013398;28;20045;-83
2022/12/14 04:50:24;;;;;;;30.90;17.38;;;-4.20;99.90;;;;;;4993803;28;20049;-83
2022/12/14 04:53:03;;;;;;;29.90;16.52;;;-4.20;99.90;;;;;;5012068;28;20085;-89
2022/12/14 04:55:41;;;;;;;28.70;16.25;;;-4.20;99.90;;;;;;5013830;28;20061;-88
2022/12/14 04:58:12;;;;;;;32.53;17.35;;;-4.20;99.90;;;;;;4996269;28;20054;-89
2022/12/14 05:00:55;;;;;;;30.52;16.00;;;-4.30;99.90;;;;;;4996004;28;20103;-96
2022/12/14 05:03:30;;;;;;;;;;;-4.30;99.90;;;;;;4996505;28;20478;-96
2022/12/14 05:06:04;;;;;;;30.10;15.60;;;-4.30;99.90;;;;;;5019796;28;19968;-96
2022/12/14 05:09:07;;;;;;;28.23;16.90;;;-4.30;99.90;;;;;;5017600;28;20508;-96
2022/12/14 05:11:40;;;;;;;27.98;15.23;;;-4.30;99.90;;;;;;4998447;28;20045;-87
2022/12/14 05:14:10;;;;;;;35.60;16.85;;;-4.30;99.90;;;;;;5012796;28;20061;-81
2022/12/14 05:16:36;;;;;;;29.70;15.52;;;-4.30;99.90;;;;;;5013384;28;20050;-81
2022/12/14 05:19:09;;;;;;;33.88;16.98;;;-4.30;99.90;;;;;;5012324;28;20169;-81
2022/12/14 05:21:47;;;;;;;32.45;17.65;;;-4.30;99.90;;;;;;5013638;28;20049;-81
2022/12/14 05:24:13;;;;;;;30.67;16.25;;;-4.30;99.90;;;;;;5013233;28;20497;-81
2022/12/14 05:26:39;;;;;;;29.90;16.85;;;-4.40;99.90;;;;;;5012571;28;20065;-81
2022/12/14 05:29:05;;;;;;;32.30;16.40;;;-4.40;99.90;;;;;;5013666;28;20092;-81
2022/12/14 05:31:30;;;;;;;32.42;17.02;;;-4.40;99.90;;;;;;5012758;28;20042;-81
2022/12/14 05:33:56;;;;;;;33.97;17.27;;;-4.30;99.90;;;;;;5012166;28;20049;-81
2022/12/14 05:36:22;;;;;;;33.75;17.95;;;-4.40;99.90;;;;;;4995376;28;20075;-81
2022/12/14 05:38:47;;;;;;;32.70;17.45;;;-4.40;99.90;;;;;;5013404;28;20064;-81
2022/12/14 05:41:13;;;;;;;30.80;16.77;;;-4.40;99.90;;;;;;5012253;28;20037;-81
2022/12/14 05:43:39;;;;;;;30.38;16.08;;;-4.40;99.90;;;;;;5013372;28;20049;-81
2022/12/14 05:46:05;;;;;;;31.60;17.52;;;-4.40;99.90;;;;;;5012928;28;20042;-81
2022/12/14 05:48:32;;;;;;;30.75;16.15;;;-4.40;99.90;;;;;;5012200;28;20048;-81
2022/12/14 05:51:09;;;;;;;33.25;17.50;;;-4.40;99.90;;;;;;4995473;28;20128;-81
2022/12/14 05:53:36;;;;;;;31.70;16.92;;;-4.40;99.90;;;;;;5016779;28;20058;-81
2022/12/14 05:56:03;;;;;;;30.35;16.88;;;-4.40;99.90;;;;;;5016343;28;20124;-81
2022/12/14 05:58:28;;;;;;;33.80;16.63;;;-4.40;99.90;;;;;;5016801;28;20046;-81
2022/12/14 06:00:59;;;;;;;32.50;16.80;;;-4.50;99.90;;;;;;5016808;28;20038;-81
2022/12/14 06:03:24;;;;;;;32.72;17.33;;;-4.50;99.90;;;;;;4998652;28;20481;-81
2022/12/14 06:05:50;;;;;;;27.73;16.38;;;-4.50;99.90;;;;;;4999420;28;20056;-81
2022/12/14 06:08:15;;;;;;;32.33;17.80;;;-4.50;99.90;;;;;;5015956;28;20049;-81
2022/12/14 06:10:41;;;;;;;30.08;16.50;;;-4.50;99.90;;;;;;5016882;28;20125;-81
2022/12/14 06:13:07;;;;;;;32.85;17.50;;;-4.50;99.90;;;;;;5016196;28;20042;-81
2022/12/14 06:15:32;;;;;;;32.30;17.73;;;-4.60;99.90;;;;;;5016011;28;20473;-81
2022/12/14 06:17:58;;;;;;;33.60;17.10;;;-4.60;99.90;;;;;;5016862;28;20050;-81
2022/12/14 06:20:23;;;;;;;31.40;16.38;;;-4.60;99.90;;;;;;5016769;28;20404;-81
2022/12/14 06:22:49;;;;;;;31.17;17.08;;;-4.60;99.90;;;;;;5016479;28;20042;-81
2022/12/14 06:25:15;;;;;;;31.75;16.42;;;-4.60;99.90;;;;;;5015905;28;20401;-81
2022/12/14 06:27:40;;;;;;;31.83;16.73;;;-4.60;99.90;;;;;;5016580;28;20088;-81
2022/12/14 06:30:06;;;;;;;32.95;18.20;;;-4.60;99.90;;;;;;5015789;28;20045;-81
2022/12/14 06:32:32;;;;;;;33.22;16.80;;;-4.60;99.90;;;;;;4998916;28;20049;-81
2022/12/14 06:34:58;;;;;;;30.70;16.33;;;-4.60;99.90;;;;;;4999213;28;20076;-81
2022/12/14 06:37:23;;;;;;;34.22;17.98;;;-4.60;99.90;;;;;;5015494;28;20508;-81
2022/12/14 06:39:49;;;;;;;30.10;16.25;;;-4.70;99.90;;;;;;5015941;28;20050;-81
2022/12/14 06:42:14;;;;;;;30.00;16.27;;;-4.70;99.90;;;;;;5016658;28;20151;-81
2022/12/14 06:44:40;;;;;;;32.30;17.08;;;-4.70;99.90;;;;;;4998405;28;20165;-81
2022/12/14 06:47:05;;;;;;;32.50;17.77;;;-4.80;99.90;;;;;;4998530;28;20141;-81
2022/12/14 06:49:31;;;;;;;30.40;17.13;;;-4.80;99.90;;;;;;5015786;28;20125;-81
2022/12/14 06:51:57;;;;;;;30.58;16.90;;;-4.80;99.90;;;;;;4998296;28;20042;-81
2022/12/14 06:54:22;;;;;;;32.58;17.65;;;-4.80;99.90;;;;;;4998221;28;20497;-81
2022/12/14 06:56:48;;;;;;;32.42;16.75;;;-4.80;99.90;;;;;;5016031;28;20045;-81
2022/12/14 06:59:15;;;;;;;32.85;16.85;;;-4.90;99.90;;;;;;4997189;28;20482;-81
2022/12/14 07:01:41;;;;;;;32.13;17.92;;;-4.90;99.90;;;;;;5016948;28;20050;-81
2022/12/14 07:04:08;;;;;;;31.65;17.02;;;-4.90;99.90;;;;;;5016379;28;20042;-81
2022/12/14 07:06:38;;;;;;;35.17;17.58;;;-4.90;99.90;;;;;;5015895;28;20088;-80
2022/12/14 07:09:06;;;;;;;32.90;17.13;;;-4.90;99.90;;;;;;5016014;28;20049;-80
2022/12/14 07:11:32;;;;;;;31.45;16.50;;;-4.90;99.90;;;;;;4999450;28;20045;-80
2022/12/14 07:14:00;;;;;;;34.47;18.58;;;-4.90;99.90;;;;;;4998493;28;20427;-81
2022/12/14 07:16:28;;;;;;;33.38;18.48;;;-4.90;99.90;;;;;;5015533;28;20057;-81
2022/12/14 07:18:54;;;;;;;32.95;17.65;;;-4.90;99.90;;;;;;4997371;28;20049;-80
2022/12/14 07:21:21;;;;;;;32.10;16.85;;;-4.90;99.90;;;;;;5015588;28;20060;-81
2022/12/14 07:23:48;;;;;;;34.88;18.38;;;-4.90;99.90;;;;;;4997584;28;20126;-80
2022/12/14 07:26:18;;;;;;;35.97;18.83;;;-4.90;99.90;;;;;;5015375;28;20038;-80
2022/12/14 07:28:45;;;;;;;32.70;17.80;;;-4.90;99.90;;;;;;4997904;28;20133;-81
2022/12/14 07:31:17;;;;;;;33.92;18.67;;;-5.00;99.90;;;;;;5015234;28;20053;-80
2022/12/14 07:33:42;;;;;;;33.45;16.95;;;-4.90;99.90;;;;;;4998287;28;20050;-81
2022/12/14 07:36:17;;;;;;;33.97;17.52;;;-5.00;99.90;;;;;;4997543;28;20041;-80
2022/12/14 07:38:45;;;;;;;34.17;17.65;;;-4.90;99.90;;;;;;4999117;28;20397;-80
2022/12/14 07:41:23;;;;;;;34.92;17.23;;;-5.00;99.90;;;;;;5014402;28;20107;-81
2022/12/14 07:43:49;;;;;;;32.67;17.70;;;-5.00;99.90;;;;;;4994742;28;20128;-80
2022/12/14 07:46:17;;;;;;;35.33;17.58;;;-5.00;99.90;;;;;;5015676;28;20124;-81
2022/12/14 07:48:48;;;;;;;32.67;17.83;;;-5.00;99.90;;;;;;5014588;28;20490;-81
2022/12/14 07:51:16;;;;;;;31.95;16.75;;;-5.00;99.90;;;;;;5015011;28;20085;-82
2022/12/14 07:53:42;;;;;;;32.45;16.88;;;-5.10;99.90;;;;;;4996724;28;20085;-82
2022/12/14 07:56:19;;;;;;;31.83;17.25;;;-5.10;99.90;;;;;;5015076;28;20569;-82
2022/12/14 07:58:45;;;;;;;33.22;17.25;;;-5.10;99.90;;;;;;5015042;28;20525;-82
2022/12/14 08:01:21;;;;;;;33.70;17.58;;;-5.20;99.90;;;;;;5014126;28;20046;-81
2022/12/14 08:03:54;;;;;;;33.78;18.50;;;-5.10;99.90;;;;;;4997187;28;20045;-82
2022/12/14 08:06:22;;;;;;;33.38;17.55;;;-5.20;99.90;;;;;;5015152;28;20054;-82
2022/12/14 08:08:49;;;;;;;32.95;16.67;;;-5.20;99.90;;;;;;5014503;28;20080;-82
2022/12/14 08:11:15;;;;;;;36.28;18.77;;;-5.20;99.90;;;;;;5014778;28;20448;-82
2022/12/14 08:13:42;;;;;;;32.15;17.45;;;-5.20;99.90;;;;;;5014760;28;20038;-82
2022/12/14 08:16:15;;;;;;;33.08;17.60;;;-5.20;99.90;;;;;;5012776;28;20056;-80
2022/12/14 08:18:42;;;;;;;33.97;17.58;;;-5.20;99.90;;;;;;4977747;28;20053;-81
2022/12/14 08:21:09;;;;;;;35.90;17.60;;;-5.20;99.90;;;;;;4992640;28;20076;-81
2022/12/14 08:23:35;;;;;;;32.33;16.38;;;-5.30;99.90;;;;;;5013907;28;20046;-81
2022/12/14 08:26:03;;;;;;;36.13;17.50;;;-5.30;99.90;;;;;;4996888;28;20052;-81
2022/12/14 08:28:30;;;;;;;34.17;17.05;;;-5.30;99.90;;;;;;4996887;28;20409;-82
2022/12/14 08:30:57;;;;;;;33.55;17.40;;;-5.40;99.90;;;;;;5013855;28;20121;-81
2022/12/14 08:33:23;;;;;;;32.22;16.67;;;-5.30;99.90;;;;;;5013963;28;20045;-82
2022/12/14 08:35:48;;;;;;;36.42;17.90;;;-5.40;99.90;;;;;;4996505;28;20161;-82
2022/12/14 08:38:14;;;;;;;34.45;17.50;;;-5.40;99.90;;;;;;5013050;28;20136;-82
2022/12/14 08:40:40;;;;;;;31.73;16.80;;;-5.40;99.90;;;;;;5014098;28;20155;-81
2022/12/14 08:43:06;;;;;;;33.90;17.42;;;-5.40;99.90;;;;;;5013368;28;20038;-82
2022/12/14 08:45:32;;;;;;;33.42;16.67;;;-5.40;99.90;;;;;;5014297;28;20092;-82
2022/12/14 08:47:59;;;;;;;31.58;16.45;;;-5.40;99.90;;;;;;5014513;28;20367;-81
2022/12/14 08:50:25;;;;;;;32.65;17.05;;;-5.40;99.90;;;;;;5013020;28;20397;-82
2022/12/14 08:52:51;;;;;;;32.15;16.88;;;-5.40;99.90;;;;;;5014102;28;20489;-82
2022/12/14 08:55:17;;;;;;;30.92;17.38;;;-5.40;99.90;;;;;;4996147;28;20092;-82
2022/12/14 08:57:42;;;;;;;32.40;16.55;;;-5.40;99.90;;;;;;5012946;28;20428;-81
2022/12/14 09:00:09;;;;;;;32.67;16.77;;;-5.40;99.90;;;;;;4996234;28;20466;-82
2022/12/14 09:02:35;;;;;;;32.92;16.80;;;-5.40;99.90;;;;;;5013548;28;20505;-83
2022/12/14 09:05:01;;;;;;;34.38;17.33;;;-5.40;99.90;;;;;;4995752;28;20509;-80
2022/12/14 09:07:30;;;;;;;31.05;16.48;;;-5.40;99.90;;;;;;4996379;28;20049;-81
2022/12/14 09:09:56;;;;;;;30.23;16.40;;;-5.40;99.90;;;;;;5013412;28;20052;-80
2022/12/14 09:12:22;;;;;;;29.58;15.95;;;-5.40;99.90;;;;;;5012367;28;20054;-80
2022/12/14 09:14:49;;;;;;;31.83;16.73;;;-5.40;99.90;;;;;;4996305;28;20054;-80
2022/12/14 09:17:15;;;;;;;33.95;16.73;;;-5.40;99.90;;;;;;4995897;28;20371;-81
2022/12/14 09:19:41;;;;;;;31.98;16.55;;;-5.30;99.90;;;;;;4995512;28;20053;-81
2022/12/14 09:22:07;;;;;;;31.20;16.63;;;-5.40;99.90;;;;;;5013674;28;20389;-80
2022/12/14 09:24:32;;;;;;;30.50;16.52;;;-5.30;99.90;;;;;;5013688;28;20038;-80
2022/12/14 09:26:59;;;;;;;29.45;15.65;;;-5.30;99.90;;;;;;5012284;28;20196;-80
2022/12/14 09:29:26;;;;;;;34.17;16.67;;;-5.30;99.90;;;;;;5012465;28;20046;-81
2022/12/14 09:31:52;;;;;;;33.85;17.27;;;-5.30;99.90;;;;;;5013537;28;20041;-81
2022/12/14 09:34:18;;;;;;;32.20;17.08;;;-5.30;99.90;;;;;;5012326;28;20046;-80
2022/12/14 09:36:44;;;;;;;30.55;16.00;;;-5.30;99.90;;;;;;5013086;28;20505;-80
2022/12/14 09:39:13;;;;;;;33.42;16.05;;;-5.30;99.90;;;;;;5012720;28;20057;-81
2022/12/14 09:42:07;;;;;;;31.13;16.60;;;-5.20;99.90;;;;;;4995942;28;20045;-81
2022/12/14 09:44:59;;;;;;;29.83;15.88;;;-5.20;99.90;;;;;;4995789;28;20053;-81
2022/12/14 09:47:52;;;;;;;30.40;15.48;;;-5.20;99.90;;;;;;4994147;28;20555;-80
2022/12/14 09:50:21;;;;;;;30.37;15.70;;;-5.20;99.90;;;;;;5012117;28;20050;-80
2022/12/14 09:52:51;;;;;;;33.53;16.73;;;-5.20;99.90;;;;;;5013305;28;20049;-81
2022/12/14 09:55:37;;;;;;;32.83;16.65;;;-5.10;99.90;;;;;;5012405;28;20050;-81
2022/12/14 09:58:18;;;;;;;31.38;16.13;;;-5.10;99.90;;;;;;5013025;28;20045;-83
2022/12/14 10:01:12;;;;;;;32.15;17.17;;;-5.00;99.90;;;;;;5012662;28;20048;-81
2022/12/14 10:04:01;;;;;;;;;;;-5.00;99.90;;;;;;4996277;28;20061;-81
2022/12/14 10:06:43;;;;;;;29.20;14.88;;;-5.00;99.90;;;;;;4968138;28;19925;-82
2022/12/14 10:09:13;;;;;;;29.88;16.10;;;-4.90;99.90;;;;;;4994757;28;20552;-82
2022/12/14 10:12:21;;;;;;;30.13;16.08;;;-4.90;99.90;;;;;;5013152;28;20068;-82
2022/12/14 10:14:52;;;;;;;30.75;16.70;;;-4.80;99.90;;;;;;5012268;28;20117;-82
2022/12/14 10:17:41;;;;;;;32.22;15.82;;;-4.80;99.90;;;;;;5012147;28;20038;-82
2022/12/14 10:20:22;;;;;;;26.83;14.98;;;-4.70;99.90;;;;;;5012938;28;20076;-83
2022/12/14 10:22:54;;;;;;;33.25;16.30;;;-4.70;99.90;;;;;;4995163;28;20053;-83
2022/12/14 10:25:28;;;;;;;30.05;15.73;;;-4.60;99.90;;;;;;4995634;28;20095;-82
2022/12/14 10:28:04;;;;;;;31.52;16.55;;;-4.50;99.90;;;;;;4995492;28;20183;-83
2022/12/14 10:30:30;;;;;;;32.88;17.00;;;-4.40;99.90;;;;;;4994484;28;20065;-82
2022/12/14 10:33:13;;;;;;;33.05;16.48;;;-4.40;99.90;;;;;;4995129;28;20489;-84
2022/12/14 10:35:52;;;;;;;30.98;16.38;;;-4.30;99.90;;;;;;4994860;28;20038;-83
2022/12/14 10:38:24;;;;;;;29.92;15.82;;;-4.30;99.90;;;;;;4997149;28;20085;-83
2022/12/14 10:41:00;;;;;;;32.40;16.38;;;-4.20;99.90;;;;;;4998116;28;20054;-83
2022/12/14 10:43:54;;;;;;;28.55;15.80;;;-4.20;99.90;;;;;;5015730;28;20049;-82
2022/12/14 10:46:33;;;;;;;27.80;15.35;;;-4.00;99.90;;;;;;4998646;28;20103;-83
2022/12/14 10:49:12;;;;;;;28.88;15.15;;;-4.00;99.90;;;;;;4998956;28;20161;-83
2022/12/14 10:51:49;;;;;;;30.30;16.30;;;-3.90;99.90;;;;;;4998558;28;20054;-83
2022/12/14 10:54:33;;;;;;;28.10;15.13;;;-3.90;99.90;;;;;;4987842;28;20042;-83
2022/12/14 10:56:59;;;;;;;28.50;15.43;;;-3.80;99.90;;;;;;4998806;28;20041;-83
2022/12/14 10:59:27;;;;;;;28.00;14.60;;;-3.70;99.90;;;;;;4999300;28;20112;-83
2022/12/14 11:02:15;;;;;;;29.88;15.10;;;-3.70;99.90;;;;;;4999137;28;20046;-82
2022/12/14 11:04:50;;;;;;;34.65;15.93;;;-3.60;99.90;;;;;;4995591;28;20038;-82
2022/12/14 11:07:19;;;;;;;27.60;14.90;;;-3.50;99.90;;;;;;5019074;28;20042;-85
2022/12/14 11:09:44;;;;;;;31.85;15.45;;;-3.50;99.90;;;;;;5022920;28;20041;-81
2022/12/14 11:12:19;;;;;;;29.17;15.13;;;-3.40;99.90;;;;;;5018608;28;20040;-83
2022/12/14 11:14:59;;;;;;;27.00;14.18;;;-3.30;99.90;;;;;;5015957;28;20053;-82
2022/12/14 11:17:43;;;;;;;26.20;14.30;;;-3.20;99.90;;;;;;5007680;28;20042;-84
2022/12/14 11:20:20;;;;;;;26.85;15.02;;;-3.20;99.90;;;;;;4998186;28;20046;-84
2022/12/14 11:22:55;;;;;;;26.92;14.02;;;-3.10;99.90;;;;;;4999359;28;20049;-83
2022/12/14 11:25:33;;;;;;;30.38;16.10;;;-3.10;99.90;;;;;;4997593;28;20401;-83
2022/12/14 11:28:04;;;;;;;32.22;16.30;;;-3.10;99.90;;;;;;4998445;28;20393;-82
2022/12/14 11:30:30;;;;;;;31.48;17.02;;;-3.00;99.90;;;;;;5016385;28;20053;-82
2022/12/14 11:32:56;;;;;;;29.50;15.70;;;-2.90;99.90;;;;;;4998595;28;20074;-83
2022/12/14 11:35:23;;;;;;;32.65;16.15;;;-2.90;99.90;;;;;;5016646;28;20038;-83
2022/12/14 11:37:49;;;;;;;29.40;16.40;;;-2.70;99.90;;;;;;4998538;28;20127;-82
2022/12/14 11:40:22;;;;;;;26.17;14.20;;;-2.70;99.90;;;;;;4993583;28;20054;-83
2022/12/14 11:42:50;;;;;;;27.05;14.98;;;-2.60;99.90;;;;;;4998472;28;20096;-82
2022/12/14 11:45:25;;;;;;;29.95;16.33;;;-2.50;99.90;;;;;;4997770;28;20544;-82
2022/12/14 11:48:12;;;;;;;33.03;16.83;;;-2.50;99.90;;;;;;4997011;28;20049;-83
2022/12/14 11:50:38;;;;;;;31.08;17.33;;;-2.40;99.90;;;;;;5015653;28;20092;-84
2022/12/14 11:53:13;;;;;;;32.08;16.70;;;-2.30;99.90;;;;;;5015360;28;20077;-84
2022/12/14 11:55:47;;;;;;;31.35;16.40;;;-2.30;99.90;;;;;;4981624;28;20050;-83
2022/12/14 11:58:20;;;;;;;32.90;17.30;;;-2.20;99.90;;;;;;4984264;28;20038;-83
2022/12/14 12:00:51;;;;;;;;;;;-2.20;99.90;;;;;;5013031;28;20046;-83
2022/12/14 12:03:40;;;;;;;31.17;15.93;;;-2.10;99.90;;;;;;4998624;28;19965;-83
2022/12/14 12:06:10;;;;;;;31.30;17.05;;;-2.10;99.90;;;;;;5017249;28;20037;-84
2022/12/14 12:08:45;;;;;;;31.40;17.15;;;-2.00;99.90;;;;;;4996356;28;20045;-82
2022/12/14 12:11:18;;;;;;;27.13;14.63;;;-1.90;99.90;;;;;;4990240;28;20093;-83
2022/12/14 12:13:46;;;;;;;39.40;19.27;;;-1.90;99.90;;;;;;5015211;28;20092;-83
2022/12/14 12:16:21;;;;;;;32.00;17.73;;;-1.80;99.90;;;;;;4997969;28;20050;-83
2022/12/14 12:18:51;;;;;;;28.38;14.68;;;-1.70;99.90;;;;;;4997732;28;20054;-83
2022/12/14 12:21:31;;;;;;;28.20;14.70;;;-1.70;99.90;;;;;;5014322;28;20045;-83
2022/12/14 12:24:23;;;;;;;27.77;15.15;;;-1.60;99.90;;;;;;4997872;28;20046;-83
2022/12/14 12:26:59;;;;;;;26.98;15.30;;;-1.60;99.90;;;;;;4997091;28;20034;-83
2022/12/14 12:29:45;;;;;;;28.73;15.82;;;-1.60;99.90;;;;;;5013355;28;20121;-83
2022/12/14 12:32:33;;;;;;;33.80;17.42;;;-1.50;99.90;;;;;;4983487;28;20078;-84
2022/12/14 12:35:07;;;;;;;35.00;16.73;;;-1.50;99.90;;;;;;4996696;28;20095;-83
2022/12/14 12:37:48;;;;;;;28.45;15.88;;;-1.40;99.90;;;;;;4996893;28;20054;-83
2022/12/14 12:40:29;;;;;;;33.45;16.55;;;-1.40;99.90;;;;;;5015119;28;20050;-82
2022/12/14 12:43:23;;;;;;;28.30;15.13;;;-1.30;99.90;;;;;;5013398;28;20050;-84
2022/12/14 12:45:59;;;;;;;23.55;13.35;;;-1.30;99.90;;;;;;5015340;28;20052;-83
2022/12/14 12:48:39;;;;;;;28.35;14.98;;;-1.30;99.90;;;;;;4997106;28;20497;-83
2022/12/14 12:51:25;;;;;;;24.30;13.48;;;-1.30;99.90;;;;;;5013361;28;20042;-83
2022/12/14 12:53:58;;;;;;;30.95;17.23;;;-1.20;99.90;;;;;;4997844;28;20042;-83
2022/12/14 12:56:26;;;;;;;27.88;15.25;;;-1.20;99.90;;;;;;5014289;28;20046;-83
2022/12/14 12:58:53;;;;;;;28.17;15.88;;;-1.10;99.90;;;;;;4997311;28;20050;-82
2022/12/14 13:01:41;;;;;;;29.20;16.05;;;-1.10;99.90;;;;;;5025988;28;20048;-83
2022/12/14 13:04:12;;;;;;;30.13;15.00;;;-1.10;99.90;;;;;;4996296;28;20038;-83
2022/12/14 13:07:10;;;;;;;31.23;15.13;;;-1.10;99.90;;;;;;4995130;28;20049;-83